sensor_id;sensor_type;location;lat;lon;timestamp;pressure;altitude;pressure_sealevel;temperature;humidity
37206;BME280;23099;42.636;23.198;2022-12-07T00:02:26;91914.78;;;6.84;86.21
37206;BME280;23099;42.636;23.198;2022-12-07T00:04:53;91909.91;;;6.86;87.64
37206;BME280;23099;42.636;23.198;2022-12-07T00:07:20;91904.25;;;6.88;87.21
37206;BME280;23099;42.636;23.198;2022-12-07T00:09:46;91901.78;;;6.95;87.83
37206;BME280;23099;42.636;23.198;2022-12-07T00:12:13;91897.69;;;6.97;87.13
37206;BME280;23099;42.636;23.198;2022-12-07T00:14:40;91901.44;;;6.96;87.55
37206;BME280;23099;42.636;23.198;2022-12-07T00:17:06;91891.78;;;7.04;88.25
37206;BME280;23099;42.636;23.198;2022-12-07T00:19:35;91900.19;;;7.06;88.09
37206;BME280;23099;42.636;23.198;2022-12-07T00:22:01;91902.25;;;7.13;88.03
37206;BME280;23099;42.636;23.198;2022-12-07T00:24:28;91895.25;;;7.20;87.61
37206;BME280;23099;42.636;23.198;2022-12-07T00:26:55;91900.97;;;7.22;87.57
37206;BME280;23099;42.636;23.198;2022-12-07T00:29:21;91898.50;;;7.29;87.82
37206;BME280;23099;42.636;23.198;2022-12-07T00:31:49;91899.72;;;7.32;87.85
37206;BME280;23099;42.636;23.198;2022-12-07T00:34:17;91895.50;;;7.31;88.43
37206;BME280;23099;42.636;23.198;2022-12-07T00:36:45;91896.72;;;7.33;88.00
37206;BME280;23099;42.636;23.198;2022-12-07T00:39:12;91897.81;;;7.32;88.50
37206;BME280;23099;42.636;23.198;2022-12-07T00:41:39;91889.56;;;7.22;88.41
37206;BME280;23099;42.636;23.198;2022-12-07T00:44:06;91893.78;;;7.23;88.16
37206;BME280;23099;42.636;23.198;2022-12-07T00:46:32;91891.81;;;7.20;88.18
37206;BME280;23099;42.636;23.198;2022-12-07T00:48:59;91885.63;;;7.16;88.37
37206;BME280;23099;42.636;23.198;2022-12-07T00:51:26;91890.91;;;7.00;87.87
37206;BME280;23099;42.636;23.198;2022-12-07T00:53:54;91887.66;;;6.63;89.18
37206;BME280;23099;42.636;23.198;2022-12-07T00:56:22;91893.91;;;6.43;90.97
37206;BME280;23099;42.636;23.198;2022-12-07T00:58:50;91888.25;;;6.16;91.84
37206;BME280;23099;42.636;23.198;2022-12-07T01:01:17;91892.38;;;6.01;92.86
37206;BME280;23099;42.636;23.198;2022-12-07T01:03:44;91893.47;;;5.52;93.91
37206;BME280;23099;42.636;23.198;2022-12-07T01:06:14;91898.09;;;5.30;95.66
37206;BME280;23099;42.636;23.198;2022-12-07T01:08:41;91890.81;;;5.27;95.63
37206;BME280;23099;42.636;23.198;2022-12-07T01:11:12;91897.41;;;5.21;96.33
37206;BME280;23099;42.636;23.198;2022-12-07T01:13:39;91898.03;;;5.06;97.33
37206;BME280;23099;42.636;23.198;2022-12-07T01:16:06;91897.50;;;5.01;97.78
37206;BME280;23099;42.636;23.198;2022-12-07T01:18:35;91896.16;;;4.94;99.05
37206;BME280;23099;42.636;23.198;2022-12-07T01:21:04;91888.84;;;4.91;99.88
37206;BME280;23099;42.636;23.198;2022-12-07T01:23:32;91878.06;;;5.09;99.46
37206;BME280;23099;42.636;23.198;2022-12-07T01:26:00;91885.06;;;5.25;99.67
37206;BME280;23099;42.636;23.198;2022-12-07T01:28:29;91884.66;;;5.48;100.00
37206;BME280;23099;42.636;23.198;2022-12-07T01:30:57;91876.66;;;5.84;100.00
37206;BME280;23099;42.636;23.198;2022-12-07T01:33:24;91867.81;;;6.05;99.67
37206;BME280;23099;42.636;23.198;2022-12-07T01:35:50;91866.69;;;6.18;99.15
37206;BME280;23099;42.636;23.198;2022-12-07T01:38:17;91868.53;;;6.29;98.10
37206;BME280;23099;42.636;23.198;2022-12-07T01:40:44;91866.28;;;6.44;97.26
37206;BME280;23099;42.636;23.198;2022-12-07T01:43:15;91864.16;;;6.49;96.86
37206;BME280;23099;42.636;23.198;2022-12-07T01:45:44;91862.78;;;6.55;96.81
37206;BME280;23099;42.636;23.198;2022-12-07T01:48:15;91859.56;;;6.62;96.37
37206;BME280;23099;42.636;23.198;2022-12-07T01:50:45;91859.31;;;6.67;94.62
37206;BME280;23099;42.636;23.198;2022-12-07T01:53:14;91854.97;;;6.74;94.57
37206;BME280;23099;42.636;23.198;2022-12-07T01:55:44;91856.94;;;6.78;93.54
37206;BME280;23099;42.636;23.198;2022-12-07T01:58:13;91844.84;;;6.80;93.05
37206;BME280;23099;42.636;23.198;2022-12-07T02:00:41;91852.50;;;6.54;92.96
37206;BME280;23099;42.636;23.198;2022-12-07T02:03:13;91854.19;;;6.18;91.61
37206;BME280;23099;42.636;23.198;2022-12-07T02:05:42;91859.97;;;5.84;92.96
37206;BME280;23099;42.636;23.198;2022-12-07T02:08:10;91850.94;;;5.12;97.46
37206;BME280;23099;42.636;23.198;2022-12-07T02:10:39;91857.66;;;5.21;99.22
37206;BME280;23099;42.636;23.198;2022-12-07T02:13:09;91857.66;;;5.09;99.74
37206;BME280;23099;42.636;23.198;2022-12-07T02:16:00;91855.88;;;5.01;100.00
37206;BME280;23099;42.636;23.198;2022-12-07T02:18:42;91843.00;;;5.24;100.00
37206;BME280;23099;42.636;23.198;2022-12-07T02:21:13;91844.53;;;5.37;100.00
37206;BME280;23099;42.636;23.198;2022-12-07T02:24:14;91849.84;;;5.37;98.95
37206;BME280;23099;42.636;23.198;2022-12-07T02:27:06;91850.50;;;5.34;97.97
37206;BME280;23099;42.636;23.198;2022-12-07T02:29:39;91846.19;;;5.29;98.45
37206;BME280;23099;42.636;23.198;2022-12-07T02:32:14;91843.66;;;5.33;98.82
37206;BME280;23099;42.636;23.198;2022-12-07T02:34:48;91851.72;;;5.24;98.75
37206;BME280;23099;42.636;23.198;2022-12-07T02:37:25;91849.19;;;5.16;98.53
37206;BME280;23099;42.636;23.198;2022-12-07T02:39:58;91844.28;;;5.06;99.08
37206;BME280;23099;42.636;23.198;2022-12-07T02:42:28;91853.69;;;5.03;99.57
37206;BME280;23099;42.636;23.198;2022-12-07T02:44:59;91838.22;;;4.93;100.00
37206;BME280;23099;42.636;23.198;2022-12-07T02:47:28;91834.91;;;5.08;100.00
37206;BME280;23099;42.636;23.198;2022-12-07T02:49:56;91829.41;;;5.13;100.00
37206;BME280;23099;42.636;23.198;2022-12-07T02:52:23;91834.72;;;5.13;99.44
37206;BME280;23099;42.636;23.198;2022-12-07T02:54:49;91828.81;;;4.83;99.91
37206;BME280;23099;42.636;23.198;2022-12-07T02:57:39;91824.72;;;4.61;100.00
37206;BME280;23099;42.636;23.198;2022-12-07T03:00:11;91822.44;;;4.39;100.00
37206;BME280;23099;42.636;23.198;2022-12-07T03:02:49;91816.81;;;4.41;100.00
37206;BME280;23099;42.636;23.198;2022-12-07T03:05:40;91809.38;;;4.34;100.00
37206;BME280;23099;42.636;23.198;2022-12-07T03:08:13;91807.84;;;4.33;100.00
37206;BME280;23099;42.636;23.198;2022-12-07T03:10:49;91815.78;;;4.00;100.00
37206;BME280;23099;42.636;23.198;2022-12-07T03:13:22;91805.53;;;3.99;100.00
37206;BME280;23099;42.636;23.198;2022-12-07T03:15:56;91811.78;;;3.94;100.00
37206;BME280;23099;42.636;23.198;2022-12-07T03:18:28;91812.50;;;3.82;100.00
37206;BME280;23099;42.636;23.198;2022-12-07T03:20:58;91814.75;;;3.72;100.00
37206;BME280;23099;42.636;23.198;2022-12-07T03:23:29;91819.13;;;3.68;100.00
37206;BME280;23099;42.636;23.198;2022-12-07T03:26:00;91817.97;;;3.57;100.00
37206;BME280;23099;42.636;23.198;2022-12-07T03:28:31;91818.16;;;3.51;100.00
37206;BME280;23099;42.636;23.198;2022-12-07T03:31:01;91824.66;;;3.54;100.00
37206;BME280;23099;42.636;23.198;2022-12-07T03:33:35;91821.31;;;3.66;100.00
37206;BME280;23099;42.636;23.198;2022-12-07T03:36:05;91824.41;;;3.68;100.00
37206;BME280;23099;42.636;23.198;2022-12-07T03:38:37;91832.94;;;3.73;100.00
37206;BME280;23099;42.636;23.198;2022-12-07T03:41:09;91817.59;;;3.67;100.00
37206;BME280;23099;42.636;23.198;2022-12-07T03:43:39;91819.72;;;3.73;100.00
37206;BME280;23099;42.636;23.198;2022-12-07T03:46:17;91817.91;;;3.86;100.00
37206;BME280;23099;42.636;23.198;2022-12-07T03:48:54;91808.22;;;3.90;100.00
37206;BME280;23099;42.636;23.198;2022-12-07T03:51:28;91821.78;;;3.88;100.00
37206;BME280;23099;42.636;23.198;2022-12-07T03:54:00;91818.16;;;3.93;100.00
37206;BME280;23099;42.636;23.198;2022-12-07T03:56:29;91825.81;;;4.07;100.00
37206;BME280;23099;42.636;23.198;2022-12-07T03:58:56;91820.84;;;4.05;100.00
37206;BME280;23099;42.636;23.198;2022-12-07T04:01:25;91821.31;;;4.07;100.00
37206;BME280;23099;42.636;23.198;2022-12-07T04:03:51;91810.03;;;3.98;100.00
37206;BME280;23099;42.636;23.198;2022-12-07T04:06:18;91803.09;;;3.73;100.00
37206;BME280;23099;42.636;23.198;2022-12-07T04:08:45;91809.94;;;3.74;100.00
37206;BME280;23099;42.636;23.198;2022-12-07T04:11:13;91803.09;;;3.73;100.00
37206;BME280;23099;42.636;23.198;2022-12-07T04:13:40;91820.28;;;3.79;100.00
37206;BME280;23099;42.636;23.198;2022-12-07T04:16:25;91815.78;;;3.79;100.00
37206;BME280;23099;42.636;23.198;2022-12-07T04:18:52;91812.63;;;3.86;100.00
37206;BME280;23099;42.636;23.198;2022-12-07T04:21:19;91810.63;;;3.83;100.00
37206;BME280;23099;42.636;23.198;2022-12-07T04:23:45;91817.97;;;3.98;100.00
37206;BME280;23099;42.636;23.198;2022-12-07T04:26:12;91819.25;;;3.92;100.00
37206;BME280;23099;42.636;23.198;2022-12-07T04:28:39;91810.16;;;4.02;100.00
37206;BME280;23099;42.636;23.198;2022-12-07T04:31:05;91803.44;;;4.04;100.00
37206;BME280;23099;42.636;23.198;2022-12-07T04:33:35;91815.47;;;4.02;100.00
37206;BME280;23099;42.636;23.198;2022-12-07T04:36:02;91819.06;;;3.97;100.00
37206;BME280;23099;42.636;23.198;2022-12-07T04:38:28;91827.44;;;3.99;100.00
37206;BME280;23099;42.636;23.198;2022-12-07T04:40:55;91822.13;;;3.87;100.00
37206;BME280;23099;42.636;23.198;2022-12-07T04:43:22;91827.41;;;3.87;100.00
37206;BME280;23099;42.636;23.198;2022-12-07T04:45:49;91831.91;;;3.86;100.00
37206;BME280;23099;42.636;23.198;2022-12-07T04:48:16;91822.88;;;3.87;100.00
37206;BME280;23099;42.636;23.198;2022-12-07T04:50:44;91825.25;;;4.01;100.00
37206;BME280;23099;42.636;23.198;2022-12-07T04:53:14;91818.34;;;4.09;100.00
37206;BME280;23099;42.636;23.198;2022-12-07T04:55:40;91814.78;;;4.25;100.00
37206;BME280;23099;42.636;23.198;2022-12-07T04:58:07;91807.44;;;4.43;100.00
37206;BME280;23099;42.636;23.198;2022-12-07T05:00:34;91812.66;;;4.64;100.00
37206;BME280;23099;42.636;23.198;2022-12-07T05:03:00;91816.69;;;4.82;100.00
37206;BME280;23099;42.636;23.198;2022-12-07T05:05:27;91816.34;;;4.72;100.00
37206;BME280;23099;42.636;23.198;2022-12-07T05:07:55;91808.22;;;4.44;100.00
37206;BME280;23099;42.636;23.198;2022-12-07T05:10:22;91816.50;;;4.42;100.00
37206;BME280;23099;42.636;23.198;2022-12-07T05:12:49;91819.75;;;4.27;100.00
37206;BME280;23099;42.636;23.198;2022-12-07T05:15:16;91825.69;;;4.24;100.00
37206;BME280;23099;42.636;23.198;2022-12-07T05:17:43;91814.47;;;4.06;100.00
37206;BME280;23099;42.636;23.198;2022-12-07T05:20:11;91836.63;;;4.02;100.00
37206;BME280;23099;42.636;23.198;2022-12-07T05:22:38;91831.59;;;3.88;100.00
37206;BME280;23099;42.636;23.198;2022-12-07T05:25:06;91829.81;;;3.92;100.00
37206;BME280;23099;42.636;23.198;2022-12-07T05:27:33;91829.13;;;3.83;100.00
37206;BME280;23099;42.636;23.198;2022-12-07T05:30:00;91825.22;;;3.89;100.00
37206;BME280;23099;42.636;23.198;2022-12-07T05:32:27;91821.13;;;4.12;100.00
37206;BME280;23099;42.636;23.198;2022-12-07T05:34:53;91819.25;;;4.46;100.00
37206;BME280;23099;42.636;23.198;2022-12-07T05:37:21;91821.00;;;4.75;100.00
37206;BME280;23099;42.636;23.198;2022-12-07T05:39:47;91813.19;;;5.03;100.00
37206;BME280;23099;42.636;23.198;2022-12-07T05:42:15;91814.63;;;5.24;100.00
37206;BME280;23099;42.636;23.198;2022-12-07T05:44:44;91814.06;;;5.43;100.00
37206;BME280;23099;42.636;23.198;2022-12-07T05:47:11;91811.06;;;5.57;100.00
37206;BME280;23099;42.636;23.198;2022-12-07T05:49:38;91809.50;;;5.68;100.00
37206;BME280;23099;42.636;23.198;2022-12-07T05:52:05;91810.25;;;5.81;100.00
37206;BME280;23099;42.636;23.198;2022-12-07T05:54:32;91807.19;;;5.91;99.99
37206;BME280;23099;42.636;23.198;2022-12-07T05:56:59;91811.56;;;5.99;99.45
37206;BME280;23099;42.636;23.198;2022-12-07T05:59:27;91812.13;;;6.05;98.47
37206;BME280;23099;42.636;23.198;2022-12-07T06:01:55;91810.31;;;6.09;98.32
37206;BME280;23099;42.636;23.198;2022-12-07T06:04:23;91807.09;;;6.15;97.96
37206;BME280;23099;42.636;23.198;2022-12-07T06:06:51;91800.34;;;6.18;97.29
37206;BME280;23099;42.636;23.198;2022-12-07T06:09:18;91808.25;;;6.30;97.13
37206;BME280;23099;42.636;23.198;2022-12-07T06:11:45;91813.31;;;6.35;96.32
37206;BME280;23099;42.636;23.198;2022-12-07T06:14:31;91808.44;;;6.37;96.10
37206;BME280;23099;42.636;23.198;2022-12-07T06:16:58;91819.59;;;6.43;95.99
37206;BME280;23099;42.636;23.198;2022-12-07T06:19:25;91819.38;;;6.48;95.71
37206;BME280;23099;42.636;23.198;2022-12-07T06:21:52;91814.81;;;6.48;94.63
37206;BME280;23099;42.636;23.198;2022-12-07T06:24:18;91822.25;;;6.43;93.59
37206;BME280;23099;42.636;23.198;2022-12-07T06:26:45;91815.97;;;6.35;93.55
37206;BME280;23099;42.636;23.198;2022-12-07T06:29:13;91823.34;;;6.14;94.63
37206;BME280;23099;42.636;23.198;2022-12-07T06:31:41;91824.38;;;5.97;95.53
37206;BME280;23099;42.636;23.198;2022-12-07T06:34:10;91825.13;;;5.45;96.87
37206;BME280;23099;42.636;23.198;2022-12-07T06:36:37;91831.97;;;5.46;97.88
37206;BME280;23099;42.636;23.198;2022-12-07T06:39:04;91825.53;;;5.35;98.79
37206;BME280;23099;42.636;23.198;2022-12-07T06:41:31;91824.88;;;5.02;99.60
37206;BME280;23099;42.636;23.198;2022-12-07T06:43:58;91821.22;;;5.06;100.00
37206;BME280;23099;42.636;23.198;2022-12-07T06:46:25;91831.16;;;5.09;100.00
37206;BME280;23099;42.636;23.198;2022-12-07T06:48:53;91830.19;;;5.14;100.00
37206;BME280;23099;42.636;23.198;2022-12-07T06:51:20;91825.44;;;5.19;100.00
37206;BME280;23099;42.636;23.198;2022-12-07T06:53:47;91830.50;;;5.24;100.00
37206;BME280;23099;42.636;23.198;2022-12-07T06:56:14;91833.50;;;5.23;100.00
37206;BME280;23099;42.636;23.198;2022-12-07T06:58:41;91833.69;;;5.06;100.00
37206;BME280;23099;42.636;23.198;2022-12-07T07:01:09;91838.44;;;4.88;100.00
37206;BME280;23099;42.636;23.198;2022-12-07T07:03:36;91839.22;;;4.88;100.00
37206;BME280;23099;42.636;23.198;2022-12-07T07:06:04;91837.22;;;4.85;100.00
37206;BME280;23099;42.636;23.198;2022-12-07T07:08:32;91835.41;;;4.77;100.00
37206;BME280;23099;42.636;23.198;2022-12-07T07:10:59;91821.31;;;4.85;100.00
37206;BME280;23099;42.636;23.198;2022-12-07T07:13:26;91830.38;;;4.84;100.00
37206;BME280;23099;42.636;23.198;2022-12-07T07:15:54;91834.66;;;4.77;100.00
37206;BME280;23099;42.636;23.198;2022-12-07T07:18:21;91839.94;;;4.77;100.00
37206;BME280;23099;42.636;23.198;2022-12-07T07:20:47;91840.69;;;4.65;100.00
37206;BME280;23099;42.636;23.198;2022-12-07T07:23:16;91839.03;;;4.60;100.00
37206;BME280;23099;42.636;23.198;2022-12-07T07:25:42;91833.00;;;4.39;100.00
37206;BME280;23099;42.636;23.198;2022-12-07T07:28:10;91843.13;;;4.58;100.00
37206;BME280;23099;42.636;23.198;2022-12-07T07:30:37;91838.88;;;4.45;100.00
37206;BME280;23099;42.636;23.198;2022-12-07T07:33:05;91846.66;;;4.08;100.00
37206;BME280;23099;42.636;23.198;2022-12-07T07:35:33;91840.53;;;3.96;100.00
37206;BME280;23099;42.636;23.198;2022-12-07T07:38:00;91841.38;;;4.08;100.00
37206;BME280;23099;42.636;23.198;2022-12-07T07:40:29;91840.22;;;3.97;100.00
37206;BME280;23099;42.636;23.198;2022-12-07T07:42:56;91849.13;;;4.13;100.00
37206;BME280;23099;42.636;23.198;2022-12-07T07:45:24;91837.34;;;4.23;100.00
37206;BME280;23099;42.636;23.198;2022-12-07T07:47:52;91833.66;;;4.36;100.00
37206;BME280;23099;42.636;23.198;2022-12-07T07:50:19;91840.84;;;4.48;100.00
37206;BME280;23099;42.636;23.198;2022-12-07T07:52:46;91843.97;;;4.62;100.00
37206;BME280;23099;42.636;23.198;2022-12-07T07:55:13;91845.66;;;4.67;100.00
37206;BME280;23099;42.636;23.198;2022-12-07T07:57:41;91844.38;;;4.85;100.00
37206;BME280;23099;42.636;23.198;2022-12-07T08:00:10;91843.50;;;4.81;100.00
37206;BME280;23099;42.636;23.198;2022-12-07T08:02:37;91845.53;;;4.63;100.00
37206;BME280;23099;42.636;23.198;2022-12-07T08:05:04;91845.13;;;4.73;100.00
37206;BME280;23099;42.636;23.198;2022-12-07T08:07:31;91843.63;;;4.96;100.00
37206;BME280;23099;42.636;23.198;2022-12-07T08:09:58;91835.94;;;5.04;100.00
37206;BME280;23099;42.636;23.198;2022-12-07T08:12:25;91847.41;;;5.32;100.00
37206;BME280;23099;42.636;23.198;2022-12-07T08:14:53;91836.00;;;5.68;100.00
37206;BME280;23099;42.636;23.198;2022-12-07T08:17:19;91837.13;;;6.31;100.00
37206;BME280;23099;42.636;23.198;2022-12-07T08:19:46;91834.44;;;7.03;97.50
37206;BME280;23099;42.636;23.198;2022-12-07T08:22:13;91830.47;;;7.60;92.98
37206;BME280;23099;42.636;23.198;2022-12-07T08:24:40;91833.03;;;8.07;89.06
37206;BME280;23099;42.636;23.198;2022-12-07T08:27:06;91834.44;;;8.36;87.58
37206;BME280;23099;42.636;23.198;2022-12-07T08:29:33;91831.91;;;8.62;85.28
37206;BME280;23099;42.636;23.198;2022-12-07T08:32:01;91831.16;;;8.84;83.89
37206;BME280;23099;42.636;23.198;2022-12-07T08:34:28;91833.97;;;9.14;82.63
37206;BME280;23099;42.636;23.198;2022-12-07T08:36:55;91826.22;;;9.29;80.28
37206;BME280;23099;42.636;23.198;2022-12-07T08:39:21;91824.16;;;9.41;79.30
37206;BME280;23099;42.636;23.198;2022-12-07T08:41:48;91827.94;;;9.63;79.36
37206;BME280;23099;42.636;23.198;2022-12-07T08:44:15;91822.13;;;9.84;78.69
37206;BME280;23099;42.636;23.198;2022-12-07T08:46:44;91823.72;;;10.15;75.88
37206;BME280;23099;42.636;23.198;2022-12-07T08:49:16;91828.50;;;10.28;75.01
37206;BME280;23099;42.636;23.198;2022-12-07T08:51:44;91832.16;;;10.47;74.97
37206;BME280;23099;42.636;23.198;2022-12-07T08:54:15;91816.75;;;10.67;72.71
37206;BME280;23099;42.636;23.198;2022-12-07T08:56:43;91818.97;;;10.94;71.80
37206;BME280;23099;42.636;23.198;2022-12-07T08:59:10;91813.09;;;11.19;71.44
37206;BME280;23099;42.636;23.198;2022-12-07T09:01:39;91811.00;;;11.02;70.63
37206;BME280;23099;42.636;23.198;2022-12-07T09:04:06;91807.38;;;11.20;69.17
37206;BME280;23099;42.636;23.198;2022-12-07T09:06:34;91804.63;;;11.10;69.14
37206;BME280;23099;42.636;23.198;2022-12-07T09:09:02;91798.84;;;11.08;70.61
37206;BME280;23099;42.636;23.198;2022-12-07T09:11:29;91805.75;;;11.09;69.84
37206;BME280;23099;42.636;23.198;2022-12-07T09:13:56;91803.63;;;10.88;70.73
37206;BME280;23099;42.636;23.198;2022-12-07T09:16:23;91803.94;;;10.83;71.50
37206;BME280;23099;42.636;23.198;2022-12-07T09:18:50;91813.31;;;10.66;71.48
37206;BME280;23099;42.636;23.198;2022-12-07T09:21:16;91800.81;;;10.44;73.05
37206;BME280;23099;42.636;23.198;2022-12-07T09:23:44;91803.69;;;10.28;73.85
37206;BME280;23099;42.636;23.198;2022-12-07T09:26:11;91798.47;;;10.09;74.85
37206;BME280;23099;42.636;23.198;2022-12-07T09:28:38;91796.41;;;9.99;74.61
37206;BME280;23099;42.636;23.198;2022-12-07T09:31:05;91798.56;;;9.89;73.40
37206;BME280;23099;42.636;23.198;2022-12-07T09:33:32;91790.44;;;9.82;73.90
37206;BME280;23099;42.636;23.198;2022-12-07T09:35:59;91789.94;;;9.73;75.19
37206;BME280;23099;42.636;23.198;2022-12-07T09:38:25;91776.53;;;9.96;75.17
37206;BME280;23099;42.636;23.198;2022-12-07T09:40:54;91775.75;;;9.96;74.73
37206;BME280;23099;42.636;23.198;2022-12-07T09:43:23;91775.41;;;9.97;74.23
37206;BME280;23099;42.636;23.198;2022-12-07T09:45:51;91782.25;;;9.95;74.15
37206;BME280;23099;42.636;23.198;2022-12-07T09:48:21;91777.44;;;10.34;73.37
37206;BME280;23099;42.636;23.198;2022-12-07T09:50:50;91763.16;;;10.89;72.91
37206;BME280;23099;42.636;23.198;2022-12-07T09:53:18;91766.69;;;11.45;71.09
37206;BME280;23099;42.636;23.198;2022-12-07T09:55:47;91768.03;;;11.72;67.93
37206;BME280;23099;42.636;23.198;2022-12-07T09:58:21;91761.28;;;11.89;66.39
37206;BME280;23099;42.636;23.198;2022-12-07T10:00:48;91757.16;;;12.02;65.75
37206;BME280;23099;42.636;23.198;2022-12-07T10:03:15;91754.66;;;12.37;66.25
37206;BME280;23099;42.636;23.198;2022-12-07T10:05:44;91752.78;;;12.52;64.01
37206;BME280;23099;42.636;23.198;2022-12-07T10:08:12;91757.00;;;12.53;63.30
37206;BME280;23099;42.636;23.198;2022-12-07T10:10:41;91752.03;;;12.52;63.96
37206;BME280;23099;42.636;23.198;2022-12-07T10:13:10;91756.19;;;12.38;62.67
37206;BME280;23099;42.636;23.198;2022-12-07T10:15:47;91748.41;;;12.16;64.32
37206;BME280;23099;42.636;23.198;2022-12-07T10:18:26;91741.69;;;12.57;62.73
37206;BME280;23099;42.636;23.198;2022-12-07T10:21:12;91737.88;;;12.58;63.44
37206;BME280;23099;42.636;23.198;2022-12-07T10:23:42;91736.63;;;12.34;62.20
37206;BME280;23099;42.636;23.198;2022-12-07T10:26:29;91736.38;;;11.85;63.45
37206;BME280;23099;42.636;23.198;2022-12-07T10:28:58;91732.97;;;11.33;66.25
37206;BME280;23099;42.636;23.198;2022-12-07T10:31:28;91724.72;;;11.05;67.99
37206;BME280;23099;42.636;23.198;2022-12-07T10:33:56;91724.53;;;10.87;68.81
37206;BME280;23099;42.636;23.198;2022-12-07T10:36:25;91728.56;;;10.67;69.93
37206;BME280;23099;42.636;23.198;2022-12-07T10:39:00;91730.06;;;10.68;70.05
37206;BME280;23099;42.636;23.198;2022-12-07T10:41:27;91711.38;;;10.68;69.91
37206;BME280;23099;42.636;23.198;2022-12-07T10:43:55;91718.59;;;10.63;69.47
37206;BME280;23099;42.636;23.198;2022-12-07T10:46:42;91718.00;;;10.44;69.92
37206;BME280;23099;42.636;23.198;2022-12-07T10:52:30;91718.88;;;10.51;70.67
37206;BME280;23099;42.636;23.198;2022-12-07T10:55:08;91713.44;;;10.44;70.57
37206;BME280;23099;42.636;23.198;2022-12-07T10:57:47;91700.88;;;10.48;71.25
37206;BME280;23099;42.636;23.198;2022-12-07T11:00:21;91700.22;;;10.58;70.50
37206;BME280;23099;42.636;23.198;2022-12-07T11:03:15;91691.28;;;10.81;69.11
37206;BME280;23099;42.636;23.198;2022-12-07T11:05:53;91683.69;;;11.41;67.30
37206;BME280;23099;42.636;23.198;2022-12-07T11:08:36;91686.31;;;11.92;64.60
37206;BME280;23099;42.636;23.198;2022-12-07T11:11:09;91677.53;;;11.95;64.51
37206;BME280;23099;42.636;23.198;2022-12-07T11:13:44;91683.13;;;11.73;64.26
37206;BME280;23099;42.636;23.198;2022-12-07T11:16:32;91678.50;;;11.66;65.45
37206;BME280;23099;42.636;23.198;2022-12-07T11:19:24;91678.44;;;12.24;61.62
37206;BME280;23099;42.636;23.198;2022-12-07T11:21:57;91673.88;;;12.39;62.24
37206;BME280;23099;42.636;23.198;2022-12-07T11:24:29;91664.41;;;12.95;58.76
37206;BME280;23099;42.636;23.198;2022-12-07T11:27:16;91667.88;;;13.41;57.24
37206;BME280;23099;42.636;23.198;2022-12-07T11:30:08;91661.63;;;13.87;54.07
37206;BME280;23099;42.636;23.198;2022-12-07T11:32:49;91658.09;;;14.11;53.41
37206;BME280;23099;42.636;23.198;2022-12-07T11:35:27;91658.28;;;13.12;55.23
37206;BME280;23099;42.636;23.198;2022-12-07T11:37:59;91659.41;;;12.90;56.51
37206;BME280;23099;42.636;23.198;2022-12-07T11:40:30;91658.25;;;13.01;56.47
37206;BME280;23099;42.636;23.198;2022-12-07T11:43:05;91662.81;;;12.58;56.44
37206;BME280;23099;42.636;23.198;2022-12-07T11:45:34;91661.53;;;12.13;58.80
37206;BME280;23099;42.636;23.198;2022-12-07T11:48:06;91671.25;;;11.66;60.85
37206;BME280;23099;42.636;23.198;2022-12-07T11:50:41;91662.56;;;11.80;61.55
37206;BME280;23099;42.636;23.198;2022-12-07T11:53:14;91655.63;;;11.76;61.73
37206;BME280;23099;42.636;23.198;2022-12-07T11:55:47;91660.19;;;11.68;61.77
37206;BME280;23099;42.636;23.198;2022-12-07T11:58:30;91651.63;;;11.45;62.89
37206;BME280;23099;42.636;23.198;2022-12-07T12:01:09;91656.09;;;11.30;64.05
37206;BME280;23099;42.636;23.198;2022-12-07T12:03:43;91654.84;;;11.13;66.11
37206;BME280;23099;42.636;23.198;2022-12-07T12:06:12;91659.06;;;11.14;65.61
37206;BME280;23099;42.636;23.198;2022-12-07T12:08:42;91651.72;;;11.04;65.44
37206;BME280;23099;42.636;23.198;2022-12-07T12:11:19;91649.75;;;10.97;65.79
37206;BME280;23099;42.636;23.198;2022-12-07T12:14:29;91650.00;;;10.78;67.51
37206;BME280;23099;42.636;23.198;2022-12-07T12:17:19;91635.75;;;10.63;68.28
37206;BME280;23099;42.636;23.198;2022-12-07T12:20:00;91633.28;;;10.44;69.36
37206;BME280;23099;42.636;23.198;2022-12-07T12:22:34;91624.81;;;10.35;70.24
37206;BME280;23099;42.636;23.198;2022-12-07T12:25:06;91620.59;;;10.34;70.45
37206;BME280;23099;42.636;23.198;2022-12-07T12:27:35;91619.44;;;10.32;70.46
37206;BME280;23099;42.636;23.198;2022-12-07T12:30:06;91619.50;;;10.39;70.77
37206;BME280;23099;42.636;23.198;2022-12-07T12:32:38;91617.63;;;10.43;69.86
37206;BME280;23099;42.636;23.198;2022-12-07T12:35:28;91620.84;;;10.62;70.22
37206;BME280;23099;42.636;23.198;2022-12-07T12:38:24;91603.50;;;10.90;68.50
37206;BME280;23099;42.636;23.198;2022-12-07T12:40:52;91603.25;;;11.13;66.67
37206;BME280;23099;42.636;23.198;2022-12-07T12:43:48;91600.31;;;11.25;65.91
37206;BME280;23099;42.636;23.198;2022-12-07T12:46:51;91598.84;;;11.38;64.63
37206;BME280;23099;42.636;23.198;2022-12-07T12:49:41;91603.34;;;11.23;64.61
37206;BME280;23099;42.636;23.198;2022-12-07T12:55:17;91606.97;;;10.97;64.96
37206;BME280;23099;42.636;23.198;2022-12-07T12:57:47;91615.41;;;10.99;65.98
37206;BME280;23099;42.636;23.198;2022-12-07T13:00:18;91613.19;;;11.12;65.33
37206;BME280;23099;42.636;23.198;2022-12-07T13:02:50;91618.88;;;11.04;64.93
37206;BME280;23099;42.636;23.198;2022-12-07T13:05:19;91618.81;;;10.93;65.90
37206;BME280;23099;42.636;23.198;2022-12-07T13:07:56;91616.13;;;10.93;67.24
37206;BME280;23099;42.636;23.198;2022-12-07T13:13:33;91612.25;;;10.87;67.59
37206;BME280;23099;42.636;23.198;2022-12-07T13:16:39;91609.66;;;10.94;67.70
37206;BME280;23099;42.636;23.198;2022-12-07T13:25:09;91615.44;;;11.03;67.86
37206;BME280;23099;42.636;23.198;2022-12-07T13:27:40;91623.88;;;11.09;66.30